createdAt,value
2018-07-08T00:00:43.360Z,20.4
2018-07-08T00:01:45.010Z,20.0
2018-07-08T00:02:46.666Z,19.2
2018-07-08T00:03:48.312Z,17.8
2018-07-08T00:04:49.957Z,17.2
2018-07-08T00:05:51.612Z,15.2
2018-07-08T00:06:53.265Z,14.7
2018-07-08T00:07:54.913Z,13.1
2018-07-08T00:08:56.564Z,13.0
2018-07-08T00:09:58.227Z,12.2
2018-07-08T00:10:59.887Z,13.1
2018-07-08T00:12:01.542Z,14.3
2018-07-08T00:13:03.192Z,14.8
2018-07-08T00:14:05.656Z,15.7
2018-07-08T00:15:07.308Z,16.9
2018-07-08T00:16:08.967Z,16.7
2018-07-08T00:17:10.614Z,16.8
2018-07-08T00:18:12.266Z,16.2
2018-07-08T00:19:13.915Z,15.8
2018-07-08T00:20:15.570Z,15.4
2018-07-08T00:21:17.227Z,15.0
2018-07-08T00:22:18.879Z,14.2
2018-07-08T00:23:20.532Z,12.6
2018-07-08T00:24:22.191Z,13.6
2018-07-08T00:25:23.845Z,13.4
2018-07-08T00:26:25.501Z,13.6
2018-07-08T00:27:27.173Z,13.8
2018-07-08T00:28:28.815Z,12.8
2018-07-08T00:29:30.468Z,12.7
2018-07-08T00:30:32.114Z,12.0
2018-07-08T00:31:34.312Z,12.8
2018-07-08T00:32:35.967Z,12.4
2018-07-08T00:33:37.622Z,12.1
2018-07-08T00:34:39.264Z,11.5
2018-07-08T00:35:40.924Z,11.4
2018-07-08T00:36:42.572Z,11.0
2018-07-08T00:37:44.229Z,10.9
2018-07-08T00:38:45.889Z,10.5
2018-07-08T00:39:47.588Z,11.0
2018-07-08T00:40:49.202Z,11.4
2018-07-08T00:41:50.851Z,11.0
2018-07-08T00:42:52.517Z,10.9
2018-07-08T00:43:54.219Z,0.0
2018-07-08T00:44:55.883Z,0.0
2018-07-08T00:45:57.535Z,0.0
2018-07-08T00:46:59.189Z,0.0
2018-07-08T00:48:00.841Z,0.0
2018-07-08T00:49:02.498Z,0.0
2018-07-08T00:50:04.152Z,0.0
2018-07-08T00:51:05.810Z,0.0
2018-07-08T00:52:07.465Z,0.0
2018-07-08T00:53:09.125Z,0.0
2018-07-08T00:54:10.775Z,0.0
2018-07-08T00:55:12.432Z,0.0
2018-07-08T00:56:14.082Z,0.0
2018-07-08T00:57:15.728Z,0.0
2018-07-08T00:58:17.394Z,0.0
2018-07-08T00:59:19.052Z,0.0
2018-07-08T01:00:21.181Z,0.0
2018-07-08T01:01:22.326Z,0.0
2018-07-08T01:02:23.990Z,0.0
2018-07-08T01:03:25.634Z,0.0
2018-07-08T01:04:27.296Z,0.0
2018-07-08T01:05:28.944Z,0.0
2018-07-08T01:06:30.609Z,0.0
2018-07-08T01:07:32.274Z,0.0
2018-07-08T01:08:33.920Z,0.0
2018-07-08T01:09:35.583Z,0.0
2018-07-08T01:10:37.255Z,0.0
2018-07-08T01:11:38.908Z,0.0
2018-07-08T01:12:40.568Z,0.0
2018-07-08T01:13:42.226Z,0.0
2018-07-08T01:14:43.888Z,0.0
2018-07-08T01:15:45.550Z,0.0
2018-07-08T01:16:47.218Z,0.0
2018-07-08T01:17:48.860Z,0.0
2018-07-08T01:18:50.505Z,0.0
2018-07-08T01:19:52.183Z,0.0
2018-07-08T01:20:53.833Z,0.0
2018-07-08T01:21:55.477Z,0.0
2018-07-08T01:22:57.142Z,0.0
2018-07-08T01:23:58.795Z,5.4
2018-07-08T01:25:00.443Z,6.0
2018-07-08T01:26:02.087Z,6.0
2018-07-08T01:27:03.741Z,6.3
2018-07-08T01:28:05.394Z,6.9
2018-07-08T01:29:07.149Z,7.1
2018-07-08T01:30:08.771Z,6.6
2018-07-08T01:31:10.420Z,6.4
2018-07-08T01:32:12.081Z,6.5
2018-07-08T01:33:13.726Z,6.2
2018-07-08T01:34:15.377Z,5.2
2018-07-08T01:35:17.027Z,4.9
2018-07-08T01:36:18.687Z,4.9
2018-07-08T01:37:20.332Z,4.0
2018-07-08T01:38:21.983Z,3.8
2018-07-08T01:39:23.633Z,3.3
2018-07-08T01:40:25.284Z,3.4
2018-07-08T01:41:26.938Z,3.0
2018-07-08T01:42:28.590Z,2.9
2018-07-08T01:43:30.249Z,3.4
2018-07-08T01:44:31.911Z,3.1
2018-07-08T01:45:33.560Z,3.1
2018-07-08T01:46:35.211Z,2.8
2018-07-08T01:47:36.857Z,3.1
2018-07-08T01:48:38.506Z,2.9
2018-07-08T01:49:40.156Z,2.9
2018-07-08T01:50:41.810Z,2.4
2018-07-08T01:51:43.462Z,2.1
2018-07-08T01:52:45.112Z,2.0
2018-07-08T01:53:46.764Z,2.0
2018-07-08T01:54:48.416Z,2.0
2018-07-08T02:01:02.617Z,0.0
2018-07-08T02:02:04.253Z,0.0
2018-07-08T02:03:56.060Z,0.0
2018-07-08T02:04:57.707Z,0.0
2018-07-08T02:06:49.503Z,0.0
2018-07-08T02:07:51.153Z,0.0
2018-07-08T02:08:52.800Z,0.0
2018-07-08T02:09:54.448Z,0.0
2018-07-08T02:10:56.091Z,0.0
2018-07-08T02:11:57.735Z,0.0
2018-07-08T02:12:59.397Z,0.0
2018-07-08T02:14:01.045Z,0.8
2018-07-08T02:15:02.687Z,0.0
2018-07-08T02:16:04.338Z,0.0
2018-07-08T02:17:06.009Z,0.1
2018-07-08T02:18:07.667Z,0.0
2018-07-08T02:19:09.317Z,0.0
2018-07-08T02:20:10.966Z,0.0
2018-07-08T02:21:12.619Z,0.0
2018-07-08T02:22:14.253Z,0.0
2018-07-08T02:23:15.927Z,0.0
2018-07-08T02:24:17.575Z,0.0
2018-07-08T02:25:19.221Z,0.0
2018-07-08T02:26:20.876Z,0.0
2018-07-08T02:27:22.535Z,0.0
2018-07-08T02:28:24.195Z,0.0
2018-07-08T02:29:25.843Z,0.0
2018-07-08T02:30:27.504Z,0.0
2018-07-08T02:31:29.144Z,0.0
2018-07-08T02:32:30.789Z,0.0
2018-07-08T02:33:32.435Z,0.0
2018-07-08T02:34:34.093Z,0.0
2018-07-08T02:35:35.746Z,0.0
2018-07-08T02:36:37.386Z,0.0
2018-07-08T02:37:39.046Z,0.0
2018-07-08T02:38:40.686Z,0.0
2018-07-08T02:39:42.334Z,0.0
2018-07-08T02:40:43.988Z,0.0
2018-07-08T02:41:45.631Z,0.0
2018-07-08T02:42:47.279Z,0.0
2018-07-08T02:43:48.923Z,0.0
2018-07-08T02:44:50.566Z,0.0
2018-07-08T02:45:52.214Z,0.0
2018-07-08T02:46:53.905Z,0.0
2018-07-08T02:47:55.562Z,0.0
2018-07-08T02:48:57.214Z,0.0
2018-07-08T02:49:58.871Z,0.0
2018-07-08T02:51:00.515Z,0.0
2018-07-08T02:52:02.162Z,0.0
2018-07-08T02:53:03.821Z,0.0
2018-07-08T02:54:05.474Z,0.0
2018-07-08T02:55:07.131Z,0.0
2018-07-08T02:56:08.790Z,0.0
2018-07-08T02:57:10.443Z,0.0
2018-07-08T02:58:12.098Z,0.0
2018-07-08T02:59:13.748Z,0.0
2018-07-08T03:00:15.408Z,0.0
2018-07-08T03:01:17.051Z,0.0
2018-07-08T03:02:18.703Z,0.0
2018-07-08T03:03:20.362Z,0.0
2018-07-08T03:04:22.009Z,0.0
2018-07-08T03:05:23.658Z,0.0
2018-07-08T03:06:25.309Z,0.0
2018-07-08T03:07:26.956Z,0.0
2018-07-08T03:08:28.602Z,0.0
2018-07-08T03:09:30.261Z,0.0
2018-07-08T03:10:31.914Z,0.0
2018-07-08T03:11:33.554Z,0.0
2018-07-08T03:12:35.207Z,0.0
2018-07-08T03:13:36.855Z,0.0
2018-07-08T03:14:38.514Z,0.0
2018-07-08T03:15:40.160Z,0.0
2018-07-08T03:16:41.815Z,0.0
2018-07-08T03:17:43.467Z,0.0
2018-07-08T03:18:45.137Z,0.0
2018-07-08T03:19:46.782Z,0.0
2018-07-08T03:20:48.441Z,0.0
2018-07-08T03:21:50.094Z,0.0
2018-07-08T03:22:51.741Z,0.0
2018-07-08T03:23:53.392Z,0.0
2018-07-08T03:24:55.046Z,0.0
2018-07-08T03:25:56.701Z,0.0
2018-07-08T03:26:58.352Z,0.0
2018-07-08T03:28:00.008Z,0.0
2018-07-08T03:29:01.657Z,0.2
2018-07-08T03:30:03.314Z,1.0
2018-07-08T03:31:04.972Z,0.7
2018-07-08T03:32:06.645Z,0.4
2018-07-08T03:33:08.295Z,1.2
2018-07-08T03:34:09.953Z,1.2
2018-07-08T03:35:11.620Z,1.6
2018-07-08T03:36:13.266Z,1.5
2018-07-08T03:37:14.921Z,1.1
2018-07-08T03:38:16.573Z,1.7
2018-07-08T03:39:18.233Z,1.8
2018-07-08T03:40:19.888Z,2.1
2018-07-08T03:41:21.536Z,2.4
2018-07-08T03:42:23.190Z,2.3
2018-07-08T03:43:24.846Z,2.3
2018-07-08T03:44:26.495Z,2.2
2018-07-08T03:45:28.161Z,2.5
2018-07-08T03:46:29.812Z,2.4
2018-07-08T03:47:31.464Z,3.2
2018-07-08T03:48:33.150Z,2.9
2018-07-08T03:49:34.805Z,2.4
2018-07-08T03:50:36.468Z,2.8
2018-07-08T03:51:38.121Z,2.9
2018-07-08T03:52:39.778Z,2.8
2018-07-08T03:53:41.441Z,2.4
2018-07-08T03:54:43.129Z,1.9
2018-07-08T03:55:44.741Z,2.4
2018-07-08T03:56:46.395Z,2.2
2018-07-08T03:57:48.044Z,2.9
2018-07-08T03:58:49.701Z,3.1
2018-07-08T03:59:51.348Z,2.5
2018-07-08T04:00:53.026Z,2.9
2018-07-08T04:01:54.656Z,2.3
2018-07-08T04:02:56.309Z,1.6
2018-07-08T04:03:57.964Z,1.4
2018-07-08T04:04:59.623Z,0.0
2018-07-08T04:06:01.294Z,0.0
2018-07-08T04:07:02.955Z,0.0
2018-07-08T04:08:04.610Z,0.0
2018-07-08T04:09:06.294Z,0.0
2018-07-08T04:10:07.954Z,0.0
2018-07-08T04:11:09.605Z,0.0
2018-07-08T04:12:11.981Z,0.0
2018-07-08T04:13:13.632Z,4.9
2018-07-08T04:14:15.282Z,5.1
2018-07-08T04:15:16.933Z,5.7
2018-07-08T04:16:18.581Z,5.7
2018-07-08T04:17:20.233Z,6.2
2018-07-08T04:18:21.890Z,5.8
2018-07-08T04:19:23.542Z,5.3
2018-07-08T04:20:25.200Z,5.4
2018-07-08T04:21:26.857Z,6.1
2018-07-08T04:22:28.507Z,6.3
2018-07-08T04:23:30.176Z,6.6
2018-07-08T04:24:31.825Z,7.5
2018-07-08T04:25:33.485Z,7.6
2018-07-08T04:26:35.129Z,7.9
2018-07-08T04:27:36.780Z,8.4
2018-07-08T04:28:38.431Z,7.8
2018-07-08T04:29:40.084Z,8.9
2018-07-08T04:30:41.744Z,9.9
2018-07-08T04:31:43.396Z,10.3
2018-07-08T04:32:45.072Z,11.5
2018-07-08T04:33:46.721Z,11.8
2018-07-08T04:34:48.374Z,12.3
2018-07-08T04:35:50.034Z,14.0
2018-07-08T04:36:51.717Z,15.1
2018-07-08T04:37:53.380Z,0.0
2018-07-08T04:38:55.033Z,0.0
2018-07-08T04:39:56.695Z,0.0
2018-07-08T04:40:58.353Z,0.0
2018-07-08T04:42:00.013Z,0.0
2018-07-08T04:43:01.664Z,0.0
2018-07-08T04:44:03.324Z,0.0
2018-07-08T04:45:04.986Z,0.0
2018-07-08T04:46:06.663Z,0.0
2018-07-08T04:47:08.324Z,0.0
2018-07-08T04:48:09.985Z,0.0
2018-07-08T04:49:11.683Z,39.3
2018-07-08T04:50:13.301Z,43.2
2018-07-08T04:51:14.963Z,45.5
2018-07-08T04:52:16.649Z,51.0
2018-07-08T04:53:18.303Z,45.3
2018-07-08T04:54:19.963Z,0.0
2018-07-08T04:55:21.626Z,0.0
2018-07-08T04:56:23.286Z,0.0
2018-07-08T04:57:24.940Z,0.0
2018-07-08T04:58:26.601Z,0.0
2018-07-08T04:59:28.274Z,0.0
2018-07-08T05:00:29.942Z,0.0
2018-07-08T05:01:31.604Z,59.5
2018-07-08T05:02:33.271Z,52.4
2018-07-08T05:03:34.941Z,49.5
2018-07-08T05:04:36.606Z,57.3
2018-07-08T05:05:38.264Z,55.6
2018-07-08T05:06:39.930Z,55.5
2018-07-08T05:07:41.590Z,58.9
2018-07-08T05:08:43.247Z,57.8
2018-07-08T05:09:44.905Z,52.8
2018-07-08T05:10:46.562Z,57.9
2018-07-08T05:12:04.832Z,57.4
2018-07-08T05:13:05.018Z,60.6
2018-07-08T05:14:06.719Z,62.5
2018-07-08T05:15:08.377Z,70.5
2018-07-08T05:16:10.071Z,64.3
2018-07-08T05:17:11.733Z,67.8
2018-07-08T05:18:13.394Z,68.4
2018-07-08T05:19:15.643Z,70.4
2018-07-08T05:20:17.375Z,69.6
2018-07-08T05:21:18.986Z,74.1
2018-07-08T05:22:20.643Z,72.5
2018-07-08T05:23:23.040Z,73.4
2018-07-08T05:24:24.693Z,73.1
2018-07-08T05:25:28.004Z,75.3
2018-07-08T05:26:29.677Z,74.4
2018-07-08T05:27:31.342Z,74.3
2018-07-08T05:28:33.006Z,75.0
2018-07-08T05:29:34.669Z,74.4
2018-07-08T05:30:36.992Z,76.2
2018-07-08T05:31:38.669Z,76.3
2018-07-08T05:32:40.334Z,77.7
2018-07-08T05:33:41.995Z,78.1
2018-07-08T05:34:43.671Z,77.6
2018-07-08T05:35:45.337Z,78.3
2018-07-08T05:36:46.998Z,78.1
2018-07-08T05:37:48.651Z,78.1
2018-07-08T05:38:50.313Z,78.3
2018-07-08T05:39:51.983Z,77.4
2018-07-08T05:40:53.656Z,77.2
2018-07-08T05:41:55.313Z,76.6
2018-07-08T05:42:56.980Z,77.0
2018-07-08T05:43:58.677Z,77.3
2018-07-08T05:45:00.342Z,78.2
2018-07-08T05:46:02.009Z,78.0
2018-07-08T05:47:03.672Z,76.1
2018-07-08T05:48:05.336Z,76.2
2018-07-08T05:49:07.034Z,0.0
2018-07-08T05:50:08.780Z,0.0
2018-07-08T05:51:10.392Z,0.0
2018-07-08T05:52:12.060Z,74.1
2018-07-08T05:53:13.726Z,71.4
2018-07-08T05:54:15.381Z,71.6
2018-07-08T05:55:17.054Z,72.7
2018-07-08T06:01:51.265Z,72.7
2018-07-08T06:02:52.928Z,72.5
2018-07-08T06:04:44.838Z,69.5
2018-07-08T06:05:46.495Z,69.2
2018-07-08T06:07:38.388Z,70.3
2018-07-08T06:08:40.678Z,68.4
2018-07-08T06:10:32.496Z,71.0
2018-07-08T06:11:34.986Z,71.1
2018-07-08T06:13:26.871Z,71.5
2018-07-08T06:14:28.535Z,71.5
2018-07-08T06:16:20.352Z,72.3
2018-07-08T06:17:22.058Z,71.0
2018-07-08T06:19:13.926Z,71.1
2018-07-08T06:20:15.601Z,70.8
2018-07-08T06:22:07.400Z,69.8
2018-07-08T06:23:09.064Z,69.4
2018-07-08T06:25:00.956Z,67.4
2018-07-08T06:26:02.664Z,67.7
2018-07-08T06:27:54.424Z,66.4
2018-07-08T06:28:56.081Z,65.9
2018-07-08T06:29:57.746Z,66.3
2018-07-08T06:30:59.422Z,66.6
2018-07-08T06:32:01.105Z,66.6
2018-07-08T06:33:02.777Z,66.8
2018-07-08T06:34:04.450Z,65.3
2018-07-08T06:35:06.178Z,65.5
2018-07-08T06:36:07.836Z,63.9
2018-07-08T06:37:09.504Z,65.7
2018-07-08T06:38:11.176Z,65.3
2018-07-08T06:39:12.900Z,64.9
2018-07-08T06:40:14.516Z,66.2
2018-07-08T06:41:16.180Z,67.4
2018-07-08T06:42:17.848Z,68.3
2018-07-08T06:43:19.516Z,66.2
2018-07-08T06:44:21.177Z,62.6
2018-07-08T06:45:22.844Z,61.2
2018-07-08T06:46:24.510Z,61.4
2018-07-08T06:47:26.180Z,62.7
2018-07-08T06:48:27.850Z,61.9
2018-07-08T06:49:29.527Z,58.4
2018-07-08T06:50:31.194Z,57.3
2018-07-08T06:51:32.862Z,56.6
2018-07-08T06:52:34.528Z,53.6
2018-07-08T06:53:36.206Z,52.0
2018-07-08T06:54:37.882Z,52.4
2018-07-08T06:55:39.554Z,49.8
2018-07-08T06:56:41.221Z,48.5
2018-07-08T06:57:42.894Z,47.3
2018-07-08T06:58:44.557Z,48.3
2018-07-08T06:59:46.220Z,49.3
2018-07-08T07:00:47.904Z,47.8
2018-07-08T07:01:49.559Z,48.2
2018-07-08T07:02:51.229Z,50.2
2018-07-08T07:03:52.904Z,51.5
2018-07-08T07:04:54.574Z,50.3
2018-07-08T07:05:56.245Z,50.2
2018-07-08T07:06:57.917Z,49.5
2018-07-08T07:07:59.593Z,48.0
2018-07-08T07:09:01.264Z,49.0
2018-07-08T07:10:02.950Z,46.6
2018-07-08T07:11:04.622Z,47.1
2018-07-08T07:12:06.318Z,45.9
2018-07-08T07:13:08.000Z,43.8
2018-07-08T07:14:09.665Z,44.3
2018-07-08T07:15:11.339Z,43.5
2018-07-08T07:16:13.010Z,46.1
2018-07-08T07:17:14.685Z,49.1
2018-07-08T07:18:16.419Z,51.8
2018-07-08T07:19:18.094Z,52.1
2018-07-08T07:20:19.771Z,49.6
2018-07-08T07:21:21.437Z,49.3
2018-07-08T07:22:23.125Z,47.1
2018-07-08T07:23:24.795Z,48.6
2018-07-08T07:24:26.475Z,49.0
2018-07-08T07:25:28.155Z,48.4
2018-07-08T07:26:29.829Z,46.7
2018-07-08T07:27:31.491Z,46.8
2018-07-08T07:28:33.163Z,48.1
2018-07-08T07:29:34.836Z,48.8
2018-07-08T07:30:36.520Z,48.3
2018-07-08T07:31:38.195Z,48.7
2018-07-08T07:32:39.865Z,47.9
2018-07-08T07:33:41.540Z,47.5
2018-07-08T07:34:43.212Z,46.9
2018-07-08T07:35:44.895Z,44.5
2018-07-08T07:36:46.576Z,43.2
2018-07-08T07:37:48.246Z,42.5
2018-07-08T07:38:49.924Z,45.0
2018-07-08T07:39:51.608Z,44.9
2018-07-08T07:40:53.285Z,42.3
2018-07-08T07:41:54.967Z,40.5
2018-07-08T07:42:56.645Z,37.9
2018-07-08T07:43:58.309Z,36.6
2018-07-08T07:44:59.990Z,37.4
2018-07-08T07:46:01.669Z,38.6
2018-07-08T07:47:03.345Z,39.8
2018-07-08T07:48:05.026Z,38.8
2018-07-08T07:49:06.739Z,40.6
2018-07-08T07:50:08.404Z,38.8
2018-07-08T07:51:10.125Z,37.5
2018-07-08T07:52:11.758Z,33.7
2018-07-08T07:53:13.474Z,33.6
2018-07-08T07:54:15.106Z,33.5
2018-07-08T07:55:16.785Z,33.6
2018-07-08T07:56:18.458Z,35.6
2018-07-08T07:57:20.126Z,37.6
2018-07-08T07:58:21.803Z,35.9
2018-07-08T07:59:23.480Z,35.7
2018-07-08T08:00:25.156Z,37.6
2018-07-08T08:01:26.837Z,37.4
2018-07-08T08:02:28.521Z,37.8
2018-07-08T08:03:30.184Z,38.8
2018-07-08T08:04:31.861Z,39.2
2018-07-08T08:05:33.532Z,39.6
2018-07-08T08:06:35.211Z,40.6
2018-07-08T08:07:36.891Z,39.2
2018-07-08T08:08:38.564Z,38.1
2018-07-08T08:09:40.233Z,38.8
2018-07-08T08:10:41.931Z,37.3
2018-07-08T08:11:44.362Z,37.7
2018-07-08T08:12:46.058Z,39.3
2018-07-08T08:13:47.735Z,39.7
2018-07-08T08:14:49.418Z,40.7
2018-07-08T08:15:51.101Z,40.6
2018-07-08T08:16:52.767Z,40.4
2018-07-08T08:17:54.447Z,39.4
2018-07-08T08:18:56.132Z,39.6
2018-07-08T08:19:57.817Z,37.5
2018-07-08T08:20:59.519Z,36.3
2018-07-08T08:22:01.173Z,36.4
2018-07-08T08:23:02.847Z,35.4
2018-07-08T08:24:04.527Z,33.4
2018-07-08T08:25:06.230Z,32.7
2018-07-08T08:26:07.910Z,33.7
2018-07-08T08:27:09.606Z,34.5
2018-07-08T08:28:12.019Z,35.2
2018-07-08T08:29:13.708Z,35.5
2018-07-08T08:30:15.391Z,36.8
2018-07-08T08:31:17.065Z,34.1
2018-07-08T08:32:18.746Z,34.9
2018-07-08T08:33:20.413Z,36.2
2018-07-08T08:34:22.098Z,35.7
2018-07-08T08:35:23.776Z,32.9
2018-07-08T08:36:25.459Z,31.1
2018-07-08T08:37:27.139Z,30.2
2018-07-08T08:38:28.819Z,31.5
2018-07-08T08:39:30.494Z,33.3
2018-07-08T08:40:32.167Z,34.6
2018-07-08T08:41:33.854Z,34.2
2018-07-08T08:42:35.543Z,33.2
2018-07-08T08:43:37.214Z,33.7
2018-07-08T08:44:38.901Z,32.2
2018-07-08T08:45:40.581Z,34.0
2018-07-08T08:46:42.254Z,33.7
2018-07-08T08:47:43.936Z,30.0
2018-07-08T08:48:45.623Z,30.2
2018-07-08T08:49:47.308Z,31.5
2018-07-08T08:50:48.977Z,31.2
2018-07-08T08:51:50.661Z,32.1
2018-07-08T08:52:52.342Z,32.2
2018-07-08T08:53:54.024Z,33.6
2018-07-08T08:54:55.710Z,32.5
2018-07-08T08:55:57.392Z,32.6
2018-07-08T08:56:59.079Z,31.7
2018-07-08T08:58:00.766Z,30.9
2018-07-08T08:59:02.447Z,33.1
2018-07-08T09:00:04.121Z,33.2
2018-07-08T09:01:05.804Z,31.3
2018-07-08T09:02:07.488Z,30.9
2018-07-08T09:03:09.164Z,29.2
2018-07-08T09:04:10.848Z,29.5
2018-07-08T09:05:12.532Z,30.1
2018-07-08T09:06:14.230Z,31.9
2018-07-08T09:07:15.911Z,31.9
2018-07-08T09:08:17.588Z,32.6
2018-07-08T09:09:19.275Z,33.7
2018-07-08T09:10:20.961Z,33.6
2018-07-08T09:11:22.638Z,36.4
2018-07-08T09:12:24.320Z,35.5
2018-07-08T09:13:25.994Z,34.4
2018-07-08T09:14:27.678Z,33.6
2018-07-08T09:15:29.374Z,34.0
2018-07-08T09:16:31.053Z,34.8
2018-07-08T09:17:32.741Z,34.1
2018-07-08T09:18:34.417Z,33.9
2018-07-08T09:19:36.098Z,32.7
2018-07-08T09:20:37.771Z,32.4
2018-07-08T09:21:39.456Z,34.8
2018-07-08T09:22:41.134Z,35.0
2018-07-08T09:23:42.870Z,32.7
2018-07-08T09:24:44.745Z,35.8
2018-07-08T09:25:46.419Z,35.3
2018-07-08T09:26:48.105Z,35.7
2018-07-08T09:27:49.788Z,37.3
2018-07-08T09:28:51.499Z,35.7
2018-07-08T09:29:53.177Z,35.4
2018-07-08T09:30:54.874Z,35.4
2018-07-08T09:31:56.552Z,35.4
2018-07-08T09:32:59.115Z,33.5
2018-07-08T09:34:00.785Z,33.2
2018-07-08T09:35:02.464Z,36.3
2018-07-08T09:36:04.150Z,37.1
2018-07-08T09:37:05.828Z,36.7
2018-07-08T09:38:07.518Z,32.8
2018-07-08T09:39:09.347Z,31.4
2018-07-08T09:40:10.902Z,31.0
2018-07-08T09:41:12.578Z,30.8
2018-07-08T09:42:14.265Z,31.6
2018-07-08T09:43:15.949Z,32.1
2018-07-08T09:44:17.630Z,33.6
2018-07-08T09:45:19.312Z,34.5
2018-07-08T09:46:20.985Z,34.6
2018-07-08T09:47:22.665Z,34.9
2018-07-08T09:48:24.349Z,34.1
2018-07-08T09:49:26.027Z,35.3
2018-07-08T09:50:27.716Z,35.1
2018-07-08T09:51:29.397Z,39.4
2018-07-08T09:52:31.142Z,39.6
2018-07-08T09:53:32.769Z,37.5
2018-07-08T09:54:34.451Z,36.8
2018-07-08T09:55:36.241Z,35.2
2018-07-08T10:01:29.474Z,30.2
2018-07-08T10:02:31.151Z,28.4
2018-07-08T10:03:32.840Z,28.6
2018-07-08T10:04:35.425Z,28.6
2018-07-08T10:05:36.993Z,29.2
2018-07-08T10:06:38.664Z,29.8
2018-07-08T10:07:40.355Z,30.0
2018-07-08T10:08:42.054Z,30.3
2018-07-08T10:09:43.724Z,30.0
2018-07-08T10:10:45.452Z,32.3
2018-07-08T10:11:47.080Z,33.8
2018-07-08T10:12:48.755Z,34.3
2018-07-08T10:13:50.479Z,34.5
2018-07-08T10:14:52.120Z,35.1
2018-07-08T10:15:53.805Z,34.8
2018-07-08T10:16:55.473Z,34.4
2018-07-08T10:17:57.151Z,32.0
2018-07-08T10:18:59.578Z,31.9
2018-07-08T10:20:01.300Z,31.2
2018-07-08T10:21:02.954Z,30.4
2018-07-08T10:22:04.635Z,30.3
2018-07-08T10:23:06.341Z,32.2
2018-07-08T10:24:08.025Z,32.5
2018-07-08T10:25:09.699Z,34.0
2018-07-08T10:26:11.387Z,33.2
2018-07-08T10:27:13.058Z,33.9
2018-07-08T10:28:14.734Z,33.6
2018-07-08T10:29:16.425Z,33.1
2018-07-08T10:30:18.120Z,32.7
2018-07-08T10:31:19.802Z,31.6
2018-07-08T10:32:21.499Z,33.2
2018-07-08T10:33:23.178Z,34.4
2018-07-08T10:34:24.851Z,34.2
2018-07-08T10:35:26.535Z,33.2
2018-07-08T10:36:28.223Z,33.9
2018-07-08T10:37:29.915Z,33.9
2018-07-08T10:38:31.602Z,33.2
2018-07-08T10:39:33.282Z,33.8
2018-07-08T10:40:34.959Z,33.4
2018-07-08T10:41:36.643Z,33.4
2018-07-08T10:42:38.342Z,30.1
2018-07-08T10:43:40.013Z,31.2
2018-07-08T10:44:41.705Z,31.4
2018-07-08T10:45:43.393Z,31.3
2018-07-08T10:46:45.071Z,32.1
2018-07-08T10:47:46.755Z,32.7
2018-07-08T10:48:48.464Z,32.6
2018-07-08T10:49:50.138Z,32.0
2018-07-08T10:50:51.826Z,33.3
2018-07-08T10:51:53.515Z,32.2
2018-07-08T10:52:55.192Z,32.2
2018-07-08T10:53:56.883Z,32.5
2018-07-08T10:54:58.569Z,33.4
2018-07-08T10:56:00.257Z,32.8
2018-07-08T10:57:01.948Z,33.2
2018-07-08T10:58:03.631Z,34.2
2018-07-08T10:59:05.316Z,34.0
2018-07-08T11:00:07.024Z,33.7
2018-07-08T11:01:08.717Z,32.5
2018-07-08T11:02:10.396Z,33.7
2018-07-08T11:03:12.072Z,34.7
2018-07-08T11:04:13.760Z,34.3
2018-07-08T11:05:15.442Z,33.7
2018-07-08T11:06:17.133Z,32.4
2018-07-08T11:07:18.821Z,32.6
2018-07-08T11:08:20.504Z,31.5
2018-07-08T11:09:22.209Z,33.0
2018-07-08T11:10:23.895Z,34.2
2018-07-08T11:11:25.586Z,32.3
2018-07-08T11:12:27.264Z,31.6
2018-07-08T11:13:28.942Z,31.5
2018-07-08T11:14:30.634Z,31.6
2018-07-08T11:15:32.299Z,32.5
2018-07-08T11:16:33.980Z,30.0
2018-07-08T11:17:35.674Z,31.4
2018-07-08T11:18:37.350Z,31.3
2018-07-08T11:19:39.052Z,30.5
2018-07-08T11:20:40.842Z,30.5
2018-07-08T11:21:42.393Z,29.9
2018-07-08T11:22:44.070Z,30.9
2018-07-08T11:23:45.748Z,31.2
2018-07-08T11:24:47.440Z,28.5
2018-07-08T11:25:49.113Z,27.6
2018-07-08T11:26:50.802Z,26.8
2018-07-08T11:27:52.486Z,28.7
2018-07-08T11:28:54.165Z,26.7
2018-07-08T11:29:55.921Z,26.9
2018-07-08T11:30:57.606Z,30.0
2018-07-08T11:31:59.289Z,30.7
2018-07-08T11:33:00.972Z,29.2
2018-07-08T11:34:02.664Z,31.8
2018-07-08T11:35:04.343Z,32.4
2018-07-08T11:36:06.064Z,31.9
2018-07-08T11:37:07.744Z,30.7
2018-07-08T11:38:09.429Z,29.1
2018-07-08T11:39:11.111Z,28.2
2018-07-08T11:40:12.791Z,29.8
2018-07-08T11:41:14.481Z,31.1
2018-07-08T11:42:16.168Z,29.7
2018-07-08T11:43:17.850Z,29.9
2018-07-08T11:44:19.523Z,30.1
2018-07-08T11:45:21.199Z,30.4
2018-07-08T11:46:22.898Z,29.9
2018-07-08T11:47:24.589Z,30.3
2018-07-08T11:48:26.280Z,30.8
2018-07-08T11:49:27.969Z,32.2
2018-07-08T11:50:29.654Z,32.5
2018-07-08T11:51:31.352Z,33.4
2018-07-08T11:52:33.031Z,33.3
2018-07-08T11:53:34.705Z,32.3
2018-07-08T11:54:36.399Z,32.7
2018-07-08T11:55:38.087Z,31.8
2018-07-08T11:56:39.774Z,32.0
2018-07-08T11:57:41.451Z,30.7
2018-07-08T11:58:43.188Z,31.6
2018-07-08T11:59:44.902Z,30.8
2018-07-08T12:00:46.582Z,30.0
2018-07-08T12:01:48.300Z,30.6
2018-07-08T12:02:49.965Z,31.7
2018-07-08T12:03:51.655Z,31.0
2018-07-08T12:04:53.352Z,30.1
2018-07-08T12:05:55.050Z,31.9
2018-07-08T12:06:56.720Z,32.3
2018-07-08T12:07:58.393Z,32.8
2018-07-08T12:09:00.132Z,32.4
2018-07-08T12:10:01.757Z,31.3
2018-07-08T12:11:03.440Z,30.2
2018-07-08T12:12:05.127Z,30.2
2018-07-08T12:13:06.827Z,29.1
2018-07-08T12:14:08.506Z,28.8
2018-07-08T12:15:10.188Z,27.4
2018-07-08T12:16:11.868Z,28.7
2018-07-08T12:17:13.584Z,29.2
2018-07-08T12:18:15.257Z,27.5
2018-07-08T12:19:16.931Z,27.8
2018-07-08T12:20:18.624Z,27.3
2018-07-08T12:21:20.324Z,27.6
2018-07-08T12:22:21.937Z,29.3
2018-07-08T12:23:23.664Z,28.2
2018-07-08T12:24:25.364Z,27.7
2018-07-08T12:25:27.042Z,28.2
2018-07-08T12:26:28.725Z,31.6
2018-07-08T12:27:30.420Z,32.3
2018-07-08T12:28:32.089Z,33.5
2018-07-08T12:29:33.772Z,34.0
2018-07-08T12:30:35.459Z,32.6
2018-07-08T12:31:37.132Z,33.6
2018-07-08T12:32:38.818Z,33.4
2018-07-08T12:33:40.501Z,32.3
2018-07-08T12:34:42.174Z,31.1
2018-07-08T12:35:43.854Z,30.0
2018-07-08T12:36:45.559Z,31.6
2018-07-08T12:37:47.235Z,31.7
2018-07-08T12:38:48.912Z,31.8
2018-07-08T12:39:50.606Z,31.2
2018-07-08T12:40:52.285Z,31.2
2018-07-08T12:41:53.968Z,31.9
2018-07-08T12:42:55.664Z,32.0
2018-07-08T12:43:57.346Z,32.2
2018-07-08T12:44:59.013Z,33.3
2018-07-08T12:46:00.703Z,32.3
2018-07-08T12:47:02.383Z,31.2
2018-07-08T12:48:04.074Z,30.9
2018-07-08T12:49:05.743Z,30.2
2018-07-08T12:50:07.421Z,29.7
2018-07-08T12:51:09.654Z,29.0
2018-07-08T12:52:11.330Z,29.8
2018-07-08T12:53:13.024Z,31.6
2018-07-08T12:54:14.699Z,32.1
2018-07-08T12:55:16.378Z,30.2
2018-07-08T12:56:18.055Z,29.8
2018-07-08T12:57:19.741Z,29.1
2018-07-08T12:58:21.418Z,30.8
2018-07-08T12:59:23.119Z,32.8
2018-07-08T13:00:24.781Z,32.4
2018-07-08T13:01:26.476Z,34.4
2018-07-08T13:02:28.154Z,33.4
2018-07-08T13:03:29.837Z,33.6
2018-07-08T13:04:31.512Z,35.3
2018-07-08T13:05:33.201Z,35.2
2018-07-08T13:06:34.938Z,36.0
2018-07-08T13:07:36.559Z,36.5
2018-07-08T13:08:38.247Z,35.5
2018-07-08T13:09:39.921Z,33.7
2018-07-08T13:10:41.602Z,33.3
2018-07-08T13:11:43.309Z,33.2
2018-07-08T13:12:44.938Z,33.0
2018-07-08T13:13:46.619Z,35.0
2018-07-08T13:14:48.311Z,34.2
2018-07-08T13:15:49.993Z,32.9
2018-07-08T13:16:51.675Z,31.7
2018-07-08T13:17:53.357Z,31.5
2018-07-08T13:18:55.076Z,31.8
2018-07-08T13:19:56.786Z,31.2
2018-07-08T13:20:58.452Z,32.3
2018-07-08T13:22:01.012Z,32.1
2018-07-08T13:23:02.691Z,31.2
2018-07-08T13:24:04.384Z,31.5
2018-07-08T13:25:06.091Z,31.7
2018-07-08T13:26:07.767Z,31.7
2018-07-08T13:27:09.446Z,31.0
2018-07-08T13:28:11.139Z,31.4
2018-07-08T13:29:12.813Z,31.4
2018-07-08T13:30:14.504Z,30.8
2018-07-08T13:31:16.178Z,30.7
2018-07-08T13:32:17.964Z,31.7
2018-07-08T13:33:19.523Z,33.9
2018-07-08T13:34:21.215Z,34.0
2018-07-08T13:35:22.890Z,33.8
2018-07-08T13:36:24.567Z,32.5
2018-07-08T13:37:26.257Z,32.8
2018-07-08T13:38:27.937Z,31.7
2018-07-08T13:39:29.623Z,31.2
2018-07-08T13:40:31.313Z,31.1
2018-07-08T13:41:32.987Z,32.4
2018-07-08T13:42:34.669Z,32.2
2018-07-08T13:43:36.345Z,32.6
2018-07-08T13:44:38.033Z,32.4
2018-07-08T13:45:39.729Z,33.0
2018-07-08T13:46:41.415Z,34.8
2018-07-08T13:47:43.097Z,34.4
2018-07-08T13:48:44.790Z,34.4
2018-07-08T13:49:46.468Z,34.3
2018-07-08T13:50:48.142Z,33.1
2018-07-08T13:51:49.832Z,32.7
2018-07-08T13:52:51.521Z,32.3
2018-07-08T13:53:53.221Z,31.3
2018-07-08T13:54:54.910Z,30.2
2018-07-08T14:01:06.373Z,30.3
2018-07-08T14:02:07.973Z,30.0
2018-07-08T14:04:00.705Z,31.9
2018-07-08T14:05:02.390Z,32.0
2018-07-08T14:06:54.215Z,31.7
2018-07-08T14:07:55.918Z,32.7
2018-07-08T14:08:57.574Z,33.7
2018-07-08T14:09:59.260Z,32.3
2018-07-08T14:11:00.955Z,32.6
2018-07-08T14:12:02.662Z,33.8
2018-07-08T14:13:04.345Z,33.3
2018-07-08T14:14:06.059Z,32.0
2018-07-08T14:15:07.743Z,32.0
2018-07-08T14:16:09.428Z,30.5
2018-07-08T14:17:11.111Z,29.8
2018-07-08T14:18:12.797Z,31.9
2018-07-08T14:19:14.481Z,31.8
2018-07-08T14:20:16.301Z,32.3
2018-07-08T14:21:17.849Z,32.5